sensor_id;sensor_type;location;lat;lon;timestamp;pressure;altitude;pressure_sealevel;temperature;humidity
69027;BME280;56080;47.594;19.116;2022-11-20T00:03:22;99978;;;1.70;86.59
69027;BME280;56080;47.594;19.116;2022-11-20T00:08:22;99970;;;1.80;85.86
69027;BME280;56080;47.594;19.116;2022-11-20T00:13:22;99951;;;1.91;85.76
69027;BME280;56080;47.594;19.116;2022-11-20T00:18:22;99941;;;1.98;85.35
69027;BME280;56080;47.594;19.116;2022-11-20T00:23:21;99945;;;1.92;85.70
69027;BME280;56080;47.594;19.116;2022-11-20T00:28:22;99951;;;1.98;85.86
69027;BME280;56080;47.594;19.116;2022-11-20T00:33:22;99950;;;1.91;86.29
69027;BME280;56080;47.594;19.116;2022-11-20T00:38:21;99957;;;1.95;86.51
69027;BME280;56080;47.594;19.116;2022-11-20T00:43:22;99983;;;1.91;86.99
69027;BME280;56080;47.594;19.116;2022-11-20T00:48:22;99997;;;2.04;87.06
69027;BME280;56080;47.594;19.116;2022-11-20T00:53:22;99973;;;1.88;87.84
69027;BME280;56080;47.594;19.116;2022-11-20T00:58:22;99963;;;1.90;88.06
69027;BME280;56080;47.594;19.116;2022-11-20T01:03:27;99965;;;1.79;88.76
69027;BME280;56080;47.594;19.116;2022-11-20T01:08:22;99966;;;1.96;88.97
69027;BME280;56080;47.594;19.116;2022-11-20T01:13:36;99977;;;1.89;89.03
69027;BME280;56080;47.594;19.116;2022-11-20T01:28:22;99979;;;1.75;90.20
69027;BME280;56080;47.594;19.116;2022-11-20T01:33:22;99964;;;1.85;90.18
69027;BME280;56080;47.594;19.116;2022-11-20T01:38:22;99951;;;1.74;90.87
69027;BME280;56080;47.594;19.116;2022-11-20T01:43:22;99938;;;1.83;91.19
69027;BME280;56080;47.594;19.116;2022-11-20T01:48:22;99938;;;1.81;90.80
69027;BME280;56080;47.594;19.116;2022-11-20T01:53:23;99934;;;1.82;91.21
69027;BME280;56080;47.594;19.116;2022-11-20T01:58:23;99926;;;1.86;91.26
69027;BME280;56080;47.594;19.116;2022-11-20T02:03:22;99929;;;1.87;91.54
69027;BME280;56080;47.594;19.116;2022-11-20T02:08:22;99922;;;1.92;91.47
69027;BME280;56080;47.594;19.116;2022-11-20T02:13:32;99924;;;1.89;92.11
69027;BME280;56080;47.594;19.116;2022-11-20T02:18:22;99930;;;1.87;92.27
69027;BME280;56080;47.594;19.116;2022-11-20T02:23:31;99928;;;2.00;91.56
69027;BME280;56080;47.594;19.116;2022-11-20T02:28:22;99928;;;2.03;91.41
69027;BME280;56080;47.594;19.116;2022-11-20T02:33:22;99934;;;1.93;90.86
69027;BME280;56080;47.594;19.116;2022-11-20T02:38:22;99916;;;1.97;90.70
69027;BME280;56080;47.594;19.116;2022-11-20T02:43:22;99894;;;1.92;90.55
69027;BME280;56080;47.594;19.116;2022-11-20T02:48:25;99900;;;1.80;90.26
69027;BME280;56080;47.594;19.116;2022-11-20T02:53:22;99905;;;1.87;89.85
69027;BME280;56080;47.594;19.116;2022-11-20T02:58:22;99909;;;1.86;90.40
69027;BME280;56080;47.594;19.116;2022-11-20T03:03:22;99909;;;1.79;90.32
69027;BME280;56080;47.594;19.116;2022-11-20T03:08:22;99898;;;1.84;89.99
69027;BME280;56080;47.594;19.116;2022-11-20T03:13:22;99897;;;1.80;90.42
69027;BME280;56080;47.594;19.116;2022-11-20T03:18:22;99899;;;1.96;90.31
69027;BME280;56080;47.594;19.116;2022-11-20T03:23:22;99896;;;1.92;89.19
69027;BME280;56080;47.594;19.116;2022-11-20T03:28:22;99910;;;1.86;89.27
69027;BME280;56080;47.594;19.116;2022-11-20T03:33:22;99921;;;1.93;89.43
69027;BME280;56080;47.594;19.116;2022-11-20T03:38:22;99923;;;1.99;89.08
69027;BME280;56080;47.594;19.116;2022-11-20T03:43:22;99914;;;1.96;88.87
69027;BME280;56080;47.594;19.116;2022-11-20T03:48:22;99896;;;1.81;89.43
69027;BME280;56080;47.594;19.116;2022-11-20T03:53:22;99898;;;1.85;89.33
69027;BME280;56080;47.594;19.116;2022-11-20T03:58:22;99898;;;1.89;89.46
69027;BME280;56080;47.594;19.116;2022-11-20T04:03:22;99895;;;1.93;89.23
69027;BME280;56080;47.594;19.116;2022-11-20T04:08:22;99904;;;1.86;89.67
69027;BME280;56080;47.594;19.116;2022-11-20T04:13:22;99890;;;1.92;90.17
69027;BME280;56080;47.594;19.116;2022-11-20T04:18:22;99880;;;1.94;89.93
69027;BME280;56080;47.594;19.116;2022-11-20T04:23:28;99889;;;2.01;89.61
69027;BME280;56080;47.594;19.116;2022-11-20T04:28:22;99866;;;2.00;89.72
69027;BME280;56080;47.594;19.116;2022-11-20T04:33:22;99855;;;1.95;89.56
69027;BME280;56080;47.594;19.116;2022-11-20T04:38:22;99858;;;1.89;90.01
69027;BME280;56080;47.594;19.116;2022-11-20T04:43:22;99860;;;2.01;89.71
69027;BME280;56080;47.594;19.116;2022-11-20T04:48:22;99859;;;1.93;89.38
69027;BME280;56080;47.594;19.116;2022-11-20T04:53:22;99863;;;1.91;89.49
69027;BME280;56080;47.594;19.116;2022-11-20T04:58:22;99838;;;1.81;89.34
69027;BME280;56080;47.594;19.116;2022-11-20T05:03:22;99835;;;2.04;89.07
69027;BME280;56080;47.594;19.116;2022-11-20T05:08:22;99832;;;2.14;88.80
69027;BME280;56080;47.594;19.116;2022-11-20T05:13:22;99827;;;2.10;88.77
69027;BME280;56080;47.594;19.116;2022-11-20T05:18:22;99852;;;2.13;88.43
69027;BME280;56080;47.594;19.116;2022-11-20T05:23:22;99846;;;2.14;88.58
69027;BME280;56080;47.594;19.116;2022-11-20T05:28:22;99834;;;2.15;88.41
69027;BME280;56080;47.594;19.116;2022-11-20T05:33:22;99808;;;1.96;88.72
69027;BME280;56080;47.594;19.116;2022-11-20T05:38:22;99818;;;2.17;88.76
69027;BME280;56080;47.594;19.116;2022-11-20T05:43:22;99807;;;2.05;88.92
69027;BME280;56080;47.594;19.116;2022-11-20T05:48:22;99818;;;2.24;88.81
69027;BME280;56080;47.594;19.116;2022-11-20T05:58:22;99835;;;2.23;88.84
69027;BME280;56080;47.594;19.116;2022-11-20T06:03:22;99847;;;2.18;88.71
69027;BME280;56080;47.594;19.116;2022-11-20T06:08:22;99862;;;2.25;88.98
69027;BME280;56080;47.594;19.116;2022-11-20T06:13:22;99854;;;2.34;88.37
69027;BME280;56080;47.594;19.116;2022-11-20T06:18:22;99845;;;2.38;88.12
69027;BME280;56080;47.594;19.116;2022-11-20T06:23:22;99847;;;2.40;88.25
69027;BME280;56080;47.594;19.116;2022-11-20T06:28:22;99844;;;2.41;88.23
69027;BME280;56080;47.594;19.116;2022-11-20T06:33:22;99842;;;2.39;88.83
69027;BME280;56080;47.594;19.116;2022-11-20T06:38:22;99864;;;2.40;88.87
69027;BME280;56080;47.594;19.116;2022-11-20T06:43:23;99879;;;2.32;88.99
69027;BME280;56080;47.594;19.116;2022-11-20T06:48:22;99882;;;2.25;88.66
69027;BME280;56080;47.594;19.116;2022-11-20T06:53:22;99882;;;2.22;89.40
69027;BME280;56080;47.594;19.116;2022-11-20T06:58:22;99888;;;2.39;88.70
69027;BME280;56080;47.594;19.116;2022-11-20T07:03:22;99885;;;2.52;88.87
69027;BME280;56080;47.594;19.116;2022-11-20T07:08:23;99877;;;2.42;89.00
69027;BME280;56080;47.594;19.116;2022-11-20T07:13:22;99878;;;2.33;89.24
69027;BME280;56080;47.594;19.116;2022-11-20T07:23:22;99890;;;2.53;88.86
69027;BME280;56080;47.594;19.116;2022-11-20T07:28:22;99898;;;2.55;88.54
69027;BME280;56080;47.594;19.116;2022-11-20T07:33:22;99910;;;2.65;87.69
69027;BME280;56080;47.594;19.116;2022-11-20T07:38:22;99901;;;2.52;87.65
69027;BME280;56080;47.594;19.116;2022-11-20T07:43:22;99895;;;2.57;86.45
69027;BME280;56080;47.594;19.116;2022-11-20T07:48:22;99898;;;2.59;87.11
69027;BME280;56080;47.594;19.116;2022-11-20T07:53:22;99908;;;2.72;86.60
69027;BME280;56080;47.594;19.116;2022-11-20T07:58:22;99908;;;2.65;85.85
69027;BME280;56080;47.594;19.116;2022-11-20T08:03:25;99911;;;2.75;85.63
69027;BME280;56080;47.594;19.116;2022-11-20T08:08:22;99892;;;2.83;84.98
69027;BME280;56080;47.594;19.116;2022-11-20T08:13:32;99888;;;2.78;86.48
69027;BME280;56080;47.594;19.116;2022-11-20T08:18:32;99885;;;2.80;86.70
69027;BME280;56080;47.594;19.116;2022-11-20T08:23:22;99903;;;2.97;85.58
69027;BME280;56080;47.594;19.116;2022-11-20T08:28:23;99899;;;2.96;85.83
69027;BME280;56080;47.594;19.116;2022-11-20T08:33:22;99888;;;3.18;84.81
69027;BME280;56080;47.594;19.116;2022-11-20T08:38:22;99881;;;3.22;83.89
69027;BME280;56080;47.594;19.116;2022-11-20T08:43:22;99896;;;3.27;83.74
69027;BME280;56080;47.594;19.116;2022-11-20T08:48:22;99907;;;3.61;83.70
69027;BME280;56080;47.594;19.116;2022-11-20T08:53:22;99900;;;3.71;81.25
69027;BME280;56080;47.594;19.116;2022-11-20T08:58:24;99894;;;3.66;80.07
69027;BME280;56080;47.594;19.116;2022-11-20T09:03:22;99902;;;3.63;79.53
69027;BME280;56080;47.594;19.116;2022-11-20T09:08:22;99905;;;3.59;79.72
69027;BME280;56080;47.594;19.116;2022-11-20T09:13:22;99914;;;3.78;79.73
69027;BME280;56080;47.594;19.116;2022-11-20T09:18:22;99919;;;3.85;79.14
69027;BME280;56080;47.594;19.116;2022-11-20T09:23:22;99927;;;3.83;78.00
69027;BME280;56080;47.594;19.116;2022-11-20T09:28:22;99931;;;3.91;78.34
69027;BME280;56080;47.594;19.116;2022-11-20T09:33:22;99924;;;3.87;78.35
69027;BME280;56080;47.594;19.116;2022-11-20T09:38:22;99916;;;3.97;79.33
69027;BME280;56080;47.594;19.116;2022-11-20T09:48:26;99908;;;4.11;79.13
69027;BME280;56080;47.594;19.116;2022-11-20T10:08:24;99893;;;4.60;77.72
69027;BME280;56080;47.594;19.116;2022-11-20T10:13:26;99884;;;4.62;77.07
69027;BME280;56080;47.594;19.116;2022-11-20T10:18:28;99878;;;4.61;77.32
69027;BME280;56080;47.594;19.116;2022-11-20T10:23:30;99864;;;4.77;77.47
69027;BME280;56080;47.594;19.116;2022-11-20T10:33:22;99849;;;4.89;77.48
69027;BME280;56080;47.594;19.116;2022-11-20T10:38:24;99852;;;4.85;76.82
69027;BME280;56080;47.594;19.116;2022-11-20T10:43:37;99853;;;5.01;77.13
69027;BME280;56080;47.594;19.116;2022-11-20T10:48:23;99852;;;4.97;77.16
69027;BME280;56080;47.594;19.116;2022-11-20T10:53:28;99849;;;5.21;76.55
69027;BME280;56080;47.594;19.116;2022-11-20T10:58:25;99852;;;5.35;76.10
69027;BME280;56080;47.594;19.116;2022-11-20T11:03:24;99847;;;5.46;75.46
69027;BME280;56080;47.594;19.116;2022-11-20T11:08:22;99853;;;5.63;75.39
69027;BME280;56080;47.594;19.116;2022-11-20T11:13:23;99870;;;5.35;75.55
69027;BME280;56080;47.594;19.116;2022-11-20T11:18:23;99867;;;5.39;75.77
69027;BME280;56080;47.594;19.116;2022-11-20T11:23:38;99867;;;5.59;75.81
69027;BME280;56080;47.594;19.116;2022-11-20T11:28:22;99876;;;5.73;75.38
69027;BME280;56080;47.594;19.116;2022-11-20T11:33:24;99878;;;5.83;75.48
69027;BME280;56080;47.594;19.116;2022-11-20T11:38:27;99871;;;5.89;75.09
69027;BME280;56080;47.594;19.116;2022-11-20T11:43:32;99861;;;5.94;75.21
69027;BME280;56080;47.594;19.116;2022-11-20T11:48:22;99854;;;6.07;75.39
69027;BME280;56080;47.594;19.116;2022-11-20T11:53:23;99845;;;5.97;76.06
69027;BME280;56080;47.594;19.116;2022-11-20T12:03:38;99826;;;6.07;75.97
69027;BME280;56080;47.594;19.116;2022-11-20T12:18:22;99829;;;6.24;76.35
69027;BME280;56080;47.594;19.116;2022-11-20T12:33:26;99817;;;6.30;76.92
69027;BME280;56080;47.594;19.116;2022-11-20T12:38:42;99802;;;6.39;76.61
69027;BME280;56080;47.594;19.116;2022-11-20T12:43:36;99800;;;6.36;76.79
69027;BME280;56080;47.594;19.116;2022-11-20T12:48:25;99811;;;6.33;76.96
69027;BME280;56080;47.594;19.116;2022-11-20T12:58:27;99816;;;6.33;77.62
69027;BME280;56080;47.594;19.116;2022-11-20T13:08:24;99823;;;6.16;78.40
69027;BME280;56080;47.594;19.116;2022-11-20T13:13:28;99826;;;6.28;78.26
69027;BME280;56080;47.594;19.116;2022-11-20T13:18:22;99832;;;6.30;78.14
69027;BME280;56080;47.594;19.116;2022-11-20T13:23:23;99839;;;6.32;78.36
69027;BME280;56080;47.594;19.116;2022-11-20T13:33:31;99830;;;6.27;78.42
69027;BME280;56080;47.594;19.116;2022-11-20T13:38:26;99822;;;6.28;78.93
69027;BME280;56080;47.594;19.116;2022-11-20T13:48:23;99808;;;6.25;78.92
69027;BME280;56080;47.594;19.116;2022-11-20T14:03:32;99793;;;6.17;79.65
69027;BME280;56080;47.594;19.116;2022-11-20T14:08:25;99794;;;6.13;80.04
69027;BME280;56080;47.594;19.116;2022-11-20T14:13:22;99788;;;6.17;79.79
69027;BME280;56080;47.594;19.116;2022-11-20T14:18:22;99787;;;6.16;79.63
69027;BME280;56080;47.594;19.116;2022-11-20T14:23:29;99787;;;6.09;79.74
69027;BME280;56080;47.594;19.116;2022-11-20T14:28:24;99790;;;6.10;80.01
69027;BME280;56080;47.594;19.116;2022-11-20T14:33:25;99796;;;6.08;80.23
69027;BME280;56080;47.594;19.116;2022-11-20T14:38:25;99797;;;5.98;80.63
69027;BME280;56080;47.594;19.116;2022-11-20T14:43:23;99804;;;5.95;80.57
69027;BME280;56080;47.594;19.116;2022-11-20T14:48:24;99808;;;5.83;81.24
69027;BME280;56080;47.594;19.116;2022-11-20T14:53:23;99814;;;5.72;82.20
69027;BME280;56080;47.594;19.116;2022-11-20T14:58:24;99816;;;5.65;82.98
69027;BME280;56080;47.594;19.116;2022-11-20T15:03:22;99831;;;5.43;84.05
69027;BME280;56080;47.594;19.116;2022-11-20T15:08:22;99828;;;5.40;83.83
69027;BME280;56080;47.594;19.116;2022-11-20T15:13:24;99828;;;5.38;83.65
69027;BME280;56080;47.594;19.116;2022-11-20T15:18:24;99832;;;5.21;84.55
69027;BME280;56080;47.594;19.116;2022-11-20T15:23:22;99828;;;5.18;84.27
69027;BME280;56080;47.594;19.116;2022-11-20T15:33:22;99836;;;4.93;85.20
69027;BME280;56080;47.594;19.116;2022-11-20T15:38:22;99832;;;4.97;85.33
69027;BME280;56080;47.594;19.116;2022-11-20T15:43:23;99836;;;4.77;85.47
69027;BME280;56080;47.594;19.116;2022-11-20T15:48:23;99845;;;4.92;85.80
69027;BME280;56080;47.594;19.116;2022-11-20T15:53:22;99849;;;5.10;84.77
69027;BME280;56080;47.594;19.116;2022-11-20T15:58:24;99844;;;4.98;85.85
69027;BME280;56080;47.594;19.116;2022-11-20T16:03:24;99839;;;5.07;85.19
69027;BME280;56080;47.594;19.116;2022-11-20T16:08:22;99840;;;4.96;85.70
69027;BME280;56080;47.594;19.116;2022-11-20T16:13:33;99839;;;5.00;85.84
69027;BME280;56080;47.594;19.116;2022-11-20T16:18:24;99842;;;4.81;86.13
69027;BME280;56080;47.594;19.116;2022-11-20T16:23:22;99834;;;4.72;87.31
69027;BME280;56080;47.594;19.116;2022-11-20T16:28:22;99826;;;4.62;87.46
69027;BME280;56080;47.594;19.116;2022-11-20T16:33:22;99833;;;4.54;88.20
69027;BME280;56080;47.594;19.116;2022-11-20T16:38:23;99835;;;4.62;87.94
69027;BME280;56080;47.594;19.116;2022-11-20T16:43:22;99832;;;4.51;88.48
69027;BME280;56080;47.594;19.116;2022-11-20T16:53:22;99828;;;4.22;89.74
69027;BME280;56080;47.594;19.116;2022-11-20T16:58:23;99816;;;4.33;88.88
69027;BME280;56080;47.594;19.116;2022-11-20T17:03:22;99827;;;4.28;88.97
69027;BME280;56080;47.594;19.116;2022-11-20T17:08:22;99820;;;3.91;90.18
69027;BME280;56080;47.594;19.116;2022-11-20T17:13:22;99815;;;3.94;90.71
69027;BME280;56080;47.594;19.116;2022-11-20T17:18:23;99798;;;3.96;90.51
69027;BME280;56080;47.594;19.116;2022-11-20T17:23:23;99792;;;3.97;90.86
69027;BME280;56080;47.594;19.116;2022-11-20T17:28:23;99784;;;3.89;91.09
69027;BME280;56080;47.594;19.116;2022-11-20T17:33:22;99790;;;3.74;90.77
69027;BME280;56080;47.594;19.116;2022-11-20T17:38:22;99793;;;3.66;90.70
69027;BME280;56080;47.594;19.116;2022-11-20T17:43:22;99792;;;3.47;90.66
69027;BME280;56080;47.594;19.116;2022-11-20T17:48:24;99780;;;3.41;91.88
69027;BME280;56080;47.594;19.116;2022-11-20T17:53:22;99775;;;3.50;91.90
69027;BME280;56080;47.594;19.116;2022-11-20T17:58:25;99768;;;3.24;93.72
69027;BME280;56080;47.594;19.116;2022-11-20T18:03:23;99772;;;3.27;92.77
69027;BME280;56080;47.594;19.116;2022-11-20T18:08:22;99773;;;3.20;92.38
69027;BME280;56080;47.594;19.116;2022-11-20T18:13:32;99776;;;3.08;92.35
69027;BME280;56080;47.594;19.116;2022-11-20T18:18:22;99787;;;2.81;94.13
69027;BME280;56080;47.594;19.116;2022-11-20T18:23:22;99796;;;2.71;96.62
69027;BME280;56080;47.594;19.116;2022-11-20T18:33:28;99797;;;2.66;96.49
69027;BME280;56080;47.594;19.116;2022-11-20T18:38:22;99812;;;2.65;96.91
69027;BME280;56080;47.594;19.116;2022-11-20T18:43:33;99825;;;2.67;96.64
69027;BME280;56080;47.594;19.116;2022-11-20T18:48:23;99830;;;2.66;96.48
69027;BME280;56080;47.594;19.116;2022-11-20T18:53:23;99842;;;2.49;97.44
69027;BME280;56080;47.594;19.116;2022-11-20T18:58:22;99843;;;2.59;97.90
69027;BME280;56080;47.594;19.116;2022-11-20T19:03:22;99833;;;2.55;97.93
69027;BME280;56080;47.594;19.116;2022-11-20T19:08:24;99838;;;2.69;97.33
69027;BME280;56080;47.594;19.116;2022-11-20T19:13:23;99844;;;2.83;97.33
69027;BME280;56080;47.594;19.116;2022-11-20T19:18:22;99842;;;2.82;96.98
69027;BME280;56080;47.594;19.116;2022-11-20T19:23:23;99839;;;2.61;94.31
69027;BME280;56080;47.594;19.116;2022-11-20T19:28:23;99846;;;2.72;95.71
69027;BME280;56080;47.594;19.116;2022-11-20T19:33:23;99849;;;2.53;97.39
69027;BME280;56080;47.594;19.116;2022-11-20T19:38:23;99838;;;2.60;96.86
69027;BME280;56080;47.594;19.116;2022-11-20T19:43:22;99814;;;2.29;97.16
69027;BME280;56080;47.594;19.116;2022-11-20T19:48:23;99818;;;2.54;96.62
69027;BME280;56080;47.594;19.116;2022-11-20T19:53:22;99824;;;2.44;96.27
69027;BME280;56080;47.594;19.116;2022-11-20T19:58:23;99832;;;2.28;95.85
69027;BME280;56080;47.594;19.116;2022-11-20T20:03:25;99821;;;2.30;95.72
69027;BME280;56080;47.594;19.116;2022-11-20T20:08:22;99813;;;2.27;95.51
69027;BME280;56080;47.594;19.116;2022-11-20T20:13:23;99810;;;2.25;95.02
69027;BME280;56080;47.594;19.116;2022-11-20T20:18:22;99797;;;2.40;96.09
69027;BME280;56080;47.594;19.116;2022-11-20T20:23:23;99790;;;2.30;96.56
69027;BME280;56080;47.594;19.116;2022-11-20T20:28:22;99778;;;2.37;97.41
69027;BME280;56080;47.594;19.116;2022-11-20T20:33:22;99778;;;2.28;98.43
69027;BME280;56080;47.594;19.116;2022-11-20T20:38:22;99784;;;2.40;98.46
69027;BME280;56080;47.594;19.116;2022-11-20T20:43:22;99773;;;2.31;98.80
69027;BME280;56080;47.594;19.116;2022-11-20T20:48:23;99783;;;2.33;97.37
69027;BME280;56080;47.594;19.116;2022-11-20T20:53:23;99782;;;2.05;97.30
69027;BME280;56080;47.594;19.116;2022-11-20T20:58:22;99787;;;1.93;97.64
69027;BME280;56080;47.594;19.116;2022-11-20T21:03:22;99793;;;1.88;97.22
69027;BME280;56080;47.594;19.116;2022-11-20T21:08:24;99766;;;1.72;97.97
69027;BME280;56080;47.594;19.116;2022-11-20T21:13:22;99767;;;1.80;97.18
69027;BME280;56080;47.594;19.116;2022-11-20T21:18:24;99782;;;1.57;97.70
69027;BME280;56080;47.594;19.116;2022-11-20T21:23:22;99790;;;1.49;97.63
69027;BME280;56080;47.594;19.116;2022-11-20T21:28:22;99781;;;1.36;98.11
69027;BME280;56080;47.594;19.116;2022-11-20T21:33:22;99768;;;1.63;97.59
69027;BME280;56080;47.594;19.116;2022-11-20T21:38:22;99788;;;1.55;97.02
69027;BME280;56080;47.594;19.116;2022-11-20T21:43:22;99793;;;1.51;96.96
69027;BME280;56080;47.594;19.116;2022-11-20T21:48:26;99793;;;1.54;96.58
69027;BME280;56080;47.594;19.116;2022-11-20T21:58:22;99792;;;1.36;94.47
69027;BME280;56080;47.594;19.116;2022-11-20T22:03:22;99783;;;1.27;96.46
69027;BME280;56080;47.594;19.116;2022-11-20T22:08:23;99774;;;1.14;96.02
69027;BME280;56080;47.594;19.116;2022-11-20T22:13:32;99782;;;1.33;95.13
69027;BME280;56080;47.594;19.116;2022-11-20T22:18:22;99790;;;1.21;94.53
69027;BME280;56080;47.594;19.116;2022-11-20T22:23:22;99771;;;1.13;94.32
69027;BME280;56080;47.594;19.116;2022-11-20T22:28:22;99764;;;0.90;94.14
69027;BME280;56080;47.594;19.116;2022-11-20T22:33:22;99757;;;0.79;94.50
69027;BME280;56080;47.594;19.116;2022-11-20T22:38:30;99744;;;0.83;95.40
69027;BME280;56080;47.594;19.116;2022-11-20T22:43:22;99734;;;0.62;95.17
69027;BME280;56080;47.594;19.116;2022-11-20T22:48:22;99731;;;0.87;96.23
69027;BME280;56080;47.594;19.116;2022-11-20T22:53:22;99731;;;1.16;96.20
69027;BME280;56080;47.594;19.116;2022-11-20T22:58:22;99729;;;1.04;96.38
69027;BME280;56080;47.594;19.116;2022-11-20T23:03:22;99731;;;1.07;96.78
69027;BME280;56080;47.594;19.116;2022-11-20T23:08:22;99721;;;1.05;95.63
69027;BME280;56080;47.594;19.116;2022-11-20T23:13:22;99717;;;0.91;96.88
69027;BME280;56080;47.594;19.116;2022-11-20T23:18:22;99712;;;1.16;96.64
69027;BME280;56080;47.594;19.116;2022-11-20T23:23:22;99701;;;1.19;98.79
69027;BME280;56080;47.594;19.116;2022-11-20T23:28:22;99706;;;1.09;100.00
69027;BME280;56080;47.594;19.116;2022-11-20T23:33:22;99702;;;0.97;99.64
69027;BME280;56080;47.594;19.116;2022-11-20T23:38:22;99712;;;0.91;100.00
69027;BME280;56080;47.594;19.116;2022-11-20T23:43:22;99712;;;0.86;100.00
69027;BME280;56080;47.594;19.116;2022-11-20T23:48:23;99708;;;0.89;100.00
69027;BME280;56080;47.594;19.116;2022-11-20T23:53:22;99691;;;0.66;100.00
69027;BME280;56080;47.594;19.116;2022-11-20T23:58:23;99698;;;0.55;100.00
